createdAt,value
2022-11-27T00:02:18.749Z,4.27
2022-11-27T00:04:46.292Z,4.43
2022-11-27T00:07:13.814Z,5.07
2022-11-27T00:09:41.595Z,4.97
2022-11-27T00:12:09.372Z,4.80
2022-11-27T00:14:36.825Z,4.30
2022-11-27T00:17:04.310Z,4.67
2022-11-27T00:19:31.821Z,4.40
2022-11-27T00:21:59.250Z,4.50
2022-11-27T00:24:26.706Z,4.50
2022-11-27T00:26:54.234Z,3.77
2022-11-27T00:29:22.910Z,3.90
2022-11-27T00:31:50.364Z,3.80
2022-11-27T00:34:17.868Z,4.00
2022-11-27T00:36:48.144Z,4.00
2022-11-27T00:39:16.063Z,3.83
2022-11-27T00:41:43.481Z,4.03
2022-11-27T00:44:10.974Z,3.67
2022-11-27T00:46:38.525Z,4.10
2022-11-27T00:49:06.773Z,3.93
2022-11-27T00:51:34.660Z,4.27
2022-11-27T00:54:02.247Z,3.90
2022-11-27T00:56:32.065Z,4.53
2022-11-27T00:59:00.013Z,4.03
2022-11-27T01:01:29.111Z,4.00
2022-11-27T01:03:58.000Z,4.13
2022-11-27T01:06:26.439Z,4.13
2022-11-27T01:08:55.135Z,3.90
2022-11-27T01:11:25.883Z,3.87
2022-11-27T01:13:54.055Z,3.80
2022-11-27T01:16:23.189Z,4.10
2022-11-27T01:18:51.570Z,4.23
2022-11-27T01:21:20.422Z,4.00
2022-11-27T01:23:48.409Z,4.20
2022-11-27T01:26:16.007Z,3.87
2022-11-27T01:28:43.530Z,4.10
2022-11-27T01:31:13.832Z,4.00
2022-11-27T01:33:44.338Z,4.20
2022-11-27T01:36:12.831Z,3.93
2022-11-27T01:38:40.360Z,4.33
2022-11-27T01:41:25.993Z,4.00
2022-11-27T01:43:55.349Z,3.97
2022-11-27T01:46:29.289Z,3.77
2022-11-27T01:49:00.722Z,3.97
2022-11-27T01:51:28.365Z,3.87
2022-11-27T01:53:55.970Z,3.87
2022-11-27T01:56:24.859Z,3.80
2022-11-27T01:58:52.711Z,3.67
2022-11-27T02:01:20.328Z,3.70
2022-11-27T02:03:47.851Z,4.10
2022-11-27T02:06:15.397Z,3.63
2022-11-27T02:08:43.253Z,3.57
2022-11-27T02:11:25.498Z,3.70
2022-11-27T02:14:00.506Z,3.33
2022-11-27T02:16:51.307Z,3.63
2022-11-27T02:19:37.131Z,3.20
2022-11-27T02:22:09.061Z,3.17
2022-11-27T02:24:56.708Z,3.30
2022-11-27T02:27:39.243Z,3.00
2022-11-27T02:30:07.276Z,3.50
2022-11-27T02:32:46.861Z,3.53
2022-11-27T02:35:24.120Z,3.27
2022-11-27T02:37:57.393Z,3.30
2022-11-27T02:40:31.462Z,3.33
2022-11-27T02:43:02.169Z,2.93
2022-11-27T02:45:34.597Z,3.10
2022-11-27T02:48:02.040Z,3.27
2022-11-27T02:50:30.236Z,3.40
2022-11-27T02:53:00.130Z,3.20
2022-11-27T02:55:31.120Z,3.50
2022-11-27T02:57:59.556Z,3.40
2022-11-27T03:00:27.072Z,3.57
2022-11-27T03:02:57.453Z,3.50
2022-11-27T03:05:26.493Z,3.60
2022-11-27T03:07:57.508Z,3.20
2022-11-27T03:10:30.815Z,3.00
2022-11-27T03:12:59.069Z,3.53
2022-11-27T03:15:27.541Z,3.07
2022-11-27T03:18:01.896Z,3.43
2022-11-27T03:20:36.090Z,3.43
2022-11-27T03:23:03.883Z,3.53
2022-11-27T03:25:31.348Z,2.97
2022-11-27T03:28:03.574Z,3.23
2022-11-27T03:30:31.182Z,3.10
2022-11-27T03:32:58.653Z,3.20
2022-11-27T03:35:26.815Z,3.13
2022-11-27T03:37:54.887Z,3.40
2022-11-27T03:40:24.881Z,3.43
2022-11-27T03:43:07.228Z,3.30
2022-11-27T03:45:39.244Z,3.60
2022-11-27T03:48:15.728Z,3.00
2022-11-27T03:50:49.261Z,3.13
2022-11-27T03:53:31.750Z,3.20
2022-11-27T03:56:09.814Z,2.73
2022-11-27T03:58:48.878Z,3.27
2022-11-27T04:01:18.660Z,2.87
2022-11-27T04:03:46.103Z,3.27
2022-11-27T04:06:13.586Z,3.40
2022-11-27T04:08:41.293Z,3.37
2022-11-27T04:11:09.184Z,3.30
2022-11-27T04:13:37.147Z,3.50
2022-11-27T04:16:04.751Z,3.50
2022-11-27T04:18:32.391Z,3.47
2022-11-27T04:20:59.860Z,4.20
2022-11-27T04:23:27.307Z,3.40
2022-11-27T04:25:54.758Z,3.80
2022-11-27T04:28:22.177Z,4.10
2022-11-27T04:30:53.853Z,3.77
2022-11-27T04:33:21.475Z,3.80
2022-11-27T04:35:49.226Z,4.00
2022-11-27T04:38:16.748Z,4.00
2022-11-27T04:48:32.121Z,4.13
2022-11-27T04:50:59.583Z,3.90
2022-11-27T04:53:26.992Z,3.87
2022-11-27T04:55:54.456Z,3.77
2022-11-27T04:58:21.921Z,3.93
2022-11-27T05:00:49.465Z,4.37
2022-11-27T05:03:16.944Z,4.23
2022-11-27T05:05:44.441Z,3.87
2022-11-27T05:08:11.882Z,4.00
2022-11-27T05:10:39.328Z,3.73
2022-11-27T05:13:06.765Z,3.50
2022-11-27T05:15:34.273Z,3.20
2022-11-27T05:18:01.740Z,3.30
2022-11-27T05:20:29.167Z,3.30
2022-11-27T05:22:56.617Z,3.57
2022-11-27T05:25:24.071Z,3.70
2022-11-27T05:27:51.504Z,3.63
2022-11-27T05:30:18.924Z,3.57
2022-11-27T05:32:46.378Z,3.60
2022-11-27T05:35:13.843Z,2.90
2022-11-27T05:37:41.252Z,3.57
2022-11-27T05:40:09.013Z,3.60
2022-11-27T05:42:36.495Z,3.30
2022-11-27T05:45:04.054Z,3.43
2022-11-27T05:47:31.857Z,3.10
2022-11-27T05:49:59.404Z,3.53
2022-11-27T05:52:27.105Z,2.90
2022-11-27T05:54:57.147Z,3.47
2022-11-27T05:57:25.073Z,3.40
2022-11-27T05:59:52.722Z,3.27
2022-11-27T06:02:24.983Z,3.60
2022-11-27T06:04:55.352Z,3.33
2022-11-27T06:07:22.887Z,3.20
2022-11-27T06:09:50.427Z,3.30
2022-11-27T06:12:17.911Z,3.63
2022-11-27T06:14:45.347Z,3.40
2022-11-27T06:17:15.739Z,3.00
2022-11-27T06:19:43.563Z,3.17
2022-11-27T06:22:11.011Z,3.50
2022-11-27T06:24:38.624Z,3.57
2022-11-27T06:27:06.359Z,3.47
2022-11-27T06:29:33.881Z,2.97
2022-11-27T06:32:01.462Z,3.40
2022-11-27T06:34:28.979Z,2.97
2022-11-27T06:36:56.400Z,3.13
2022-11-27T06:39:24.057Z,3.43
2022-11-27T06:41:51.465Z,2.70
2022-11-27T06:44:18.868Z,3.13
2022-11-27T06:46:46.302Z,3.37
2022-11-27T06:49:13.766Z,3.33
2022-11-27T06:51:41.284Z,3.17
2022-11-27T06:54:08.810Z,3.50
2022-11-27T06:56:36.228Z,3.73
2022-11-27T06:59:03.699Z,3.30
2022-11-27T07:01:31.985Z,3.10
2022-11-27T07:03:59.665Z,3.70
2022-11-27T07:06:27.713Z,3.37
2022-11-27T07:08:55.592Z,3.60
2022-11-27T07:11:27.600Z,3.47
2022-11-27T07:13:56.222Z,3.27
2022-11-27T07:16:24.346Z,3.50
2022-11-27T07:18:55.343Z,3.30
2022-11-27T07:21:22.927Z,3.47
2022-11-27T07:23:50.450Z,3.77
2022-11-27T07:26:19.342Z,3.50
2022-11-27T07:28:46.824Z,3.70
2022-11-27T07:31:15.990Z,3.20
2022-11-27T07:33:43.483Z,3.03
2022-11-27T07:36:16.014Z,3.17
2022-11-27T07:38:43.640Z,3.43
2022-11-27T07:41:11.620Z,3.37
2022-11-27T07:43:39.366Z,3.10
2022-11-27T07:46:07.629Z,3.30
2022-11-27T07:48:35.270Z,3.00
2022-11-27T07:51:02.720Z,3.10
2022-11-27T07:53:30.168Z,2.90
2022-11-27T07:56:00.177Z,2.80
2022-11-27T07:58:27.649Z,2.70
2022-11-27T08:00:56.542Z,3.10
2022-11-27T08:03:24.504Z,2.70
2022-11-27T08:05:52.146Z,2.10
2022-11-27T08:08:19.646Z,2.30
2022-11-27T08:10:47.088Z,2.60
2022-11-27T08:13:14.598Z,2.90
2022-11-27T08:15:42.075Z,3.00
2022-11-27T08:18:09.524Z,2.80
2022-11-27T08:20:36.998Z,2.80
2022-11-27T08:23:04.707Z,2.70
2022-11-27T08:25:32.552Z,2.63
2022-11-27T08:28:00.044Z,3.20
2022-11-27T08:30:27.500Z,3.77
2022-11-27T08:32:54.946Z,2.73
2022-11-27T08:35:22.914Z,3.53
2022-11-27T08:37:50.438Z,3.13
2022-11-27T08:40:17.931Z,3.20
2022-11-27T08:42:45.300Z,3.07
2022-11-27T08:45:12.768Z,3.70
2022-11-27T08:47:40.291Z,3.00
2022-11-27T08:50:08.160Z,3.30
2022-11-27T08:52:35.619Z,3.50
2022-11-27T08:55:03.812Z,3.33
2022-11-27T08:57:31.295Z,2.83
2022-11-27T08:59:58.769Z,3.23
2022-11-27T09:02:26.349Z,3.03
2022-11-27T09:04:53.759Z,3.10
2022-11-27T09:07:21.282Z,3.50
2022-11-27T09:09:48.862Z,3.40
2022-11-27T09:12:16.795Z,3.37
2022-11-27T09:14:44.197Z,3.20
2022-11-27T09:17:11.641Z,3.40
2022-11-27T09:19:39.145Z,2.97
2022-11-27T09:22:06.615Z,3.63
2022-11-27T09:24:34.073Z,3.77
2022-11-27T09:27:01.478Z,3.63
2022-11-27T09:29:29.028Z,4.10
2022-11-27T09:31:56.597Z,3.60
2022-11-27T09:34:24.037Z,3.47
2022-11-27T09:36:51.509Z,3.60
2022-11-27T09:39:22.801Z,3.53
2022-11-27T09:41:54.588Z,3.50
2022-11-27T09:44:28.225Z,3.60
2022-11-27T09:47:01.049Z,3.13
2022-11-27T09:49:32.134Z,3.30
2022-11-27T09:51:59.624Z,3.53
2022-11-27T09:54:33.073Z,3.90
2022-11-27T09:57:00.602Z,3.70
2022-11-27T09:59:40.375Z,4.07
2022-11-27T10:02:17.833Z,4.03
2022-11-27T10:05:12.249Z,3.40
2022-11-27T10:07:53.212Z,3.80
2022-11-27T10:10:39.710Z,3.70
2022-11-27T10:13:25.879Z,3.67
2022-11-27T10:16:03.889Z,3.60
2022-11-27T10:18:37.155Z,3.90
2022-11-27T10:21:15.647Z,3.57
2022-11-27T10:23:48.911Z,3.67
2022-11-27T10:26:21.489Z,3.80
2022-11-27T10:29:01.958Z,3.43
2022-11-27T10:31:29.569Z,4.00
2022-11-27T10:33:58.889Z,3.50
2022-11-27T10:36:37.524Z,3.90
2022-11-27T10:39:07.021Z,3.23
2022-11-27T10:41:50.376Z,4.10
2022-11-27T10:44:28.046Z,3.53
2022-11-27T10:46:57.748Z,3.60
2022-11-27T10:49:25.225Z,3.63
2022-11-27T10:51:52.718Z,3.80
2022-11-27T10:54:24.743Z,3.83
2022-11-27T10:57:07.290Z,4.00
2022-11-27T10:59:38.656Z,4.00
2022-11-27T11:02:08.670Z,4.13
2022-11-27T11:04:38.674Z,3.57
2022-11-27T11:07:23.381Z,3.60
2022-11-27T11:09:51.017Z,3.47
2022-11-27T11:12:21.271Z,3.80
2022-11-27T11:14:59.327Z,3.40
2022-11-27T11:17:37.300Z,3.90
2022-11-27T11:20:15.412Z,3.67
2022-11-27T11:22:46.689Z,3.50
2022-11-27T11:25:21.235Z,3.67
2022-11-27T11:27:49.824Z,4.10
2022-11-27T11:30:25.269Z,3.97
2022-11-27T11:32:59.906Z,3.80
2022-11-27T11:35:35.441Z,3.87
2022-11-27T11:38:07.752Z,3.70
2022-11-27T11:40:36.667Z,3.77
2022-11-27T11:43:10.172Z,4.30
2022-11-27T11:45:45.510Z,3.80
2022-11-27T11:48:19.254Z,3.60
2022-11-27T11:50:50.534Z,3.53
2022-11-27T11:53:17.954Z,4.27
2022-11-27T11:55:54.527Z,4.00
2022-11-27T11:58:31.312Z,3.83
2022-11-27T12:01:26.375Z,4.07
2022-11-27T12:03:54.105Z,4.57
2022-11-27T12:06:41.321Z,4.93
2022-11-27T12:09:11.814Z,5.27
2022-11-27T12:11:57.710Z,5.40
2022-11-27T12:14:31.125Z,4.70
2022-11-27T12:17:01.193Z,4.20
2022-11-27T12:19:35.067Z,4.17
2022-11-27T12:22:14.829Z,4.80
2022-11-27T12:25:14.543Z,3.97
2022-11-27T12:28:00.415Z,3.67
2022-11-27T12:30:37.051Z,4.40
2022-11-27T12:33:04.553Z,4.03
2022-11-27T12:35:37.952Z,5.10
2022-11-27T12:38:14.465Z,4.40
2022-11-27T12:40:41.899Z,4.20
2022-11-27T12:43:24.990Z,5.00
2022-11-27T12:45:52.461Z,5.53
2022-11-27T12:48:19.953Z,4.50
2022-11-27T12:50:59.336Z,4.80
2022-11-27T12:53:44.931Z,4.57
2022-11-27T12:56:21.761Z,4.07
2022-11-27T12:58:52.103Z,4.40
2022-11-27T13:01:26.735Z,3.90
2022-11-27T13:04:13.503Z,4.53
2022-11-27T13:06:46.111Z,4.43
2022-11-27T13:09:21.992Z,4.37
2022-11-27T13:11:49.658Z,4.37
2022-11-27T13:14:19.634Z,4.00
2022-11-27T13:16:49.562Z,4.73
2022-11-27T13:19:20.114Z,3.93
2022-11-27T13:21:48.585Z,4.50
2022-11-27T13:24:16.546Z,4.00
2022-11-27T13:26:55.667Z,3.87
2022-11-27T13:29:40.466Z,3.80
2022-11-27T13:32:08.329Z,3.80
2022-11-27T13:34:43.377Z,4.63
2022-11-27T13:37:19.799Z,4.00
2022-11-27T13:39:47.216Z,3.90
2022-11-27T13:42:17.377Z,4.30
2022-11-27T13:44:46.114Z,3.80
2022-11-27T13:47:16.151Z,3.83
2022-11-27T13:49:43.721Z,3.77
2022-11-27T13:52:19.241Z,3.47
2022-11-27T13:55:03.208Z,3.50
2022-11-27T13:57:35.751Z,3.67
2022-11-27T14:00:06.957Z,3.70
2022-11-27T14:02:50.556Z,3.63
2022-11-27T14:05:19.543Z,3.80
2022-11-27T14:07:51.535Z,4.00
2022-11-27T14:10:24.157Z,4.10
2022-11-27T14:12:57.395Z,3.83
2022-11-27T14:15:27.489Z,3.57
2022-11-27T14:18:04.992Z,4.20
2022-11-27T14:20:33.780Z,3.83
2022-11-27T14:23:17.269Z,4.07
2022-11-27T14:25:44.813Z,6.60
2022-11-27T14:28:22.387Z,5.37
2022-11-27T14:30:51.268Z,4.30
2022-11-27T14:33:24.051Z,4.23
2022-11-27T14:35:55.587Z,4.60
2022-11-27T14:38:23.719Z,4.63
2022-11-27T14:40:53.710Z,4.90
2022-11-27T14:43:26.207Z,5.33
2022-11-27T14:45:55.152Z,4.00
2022-11-27T14:48:26.816Z,4.33
2022-11-27T14:50:55.678Z,4.27
2022-11-27T14:53:28.062Z,4.20
2022-11-27T14:55:58.336Z,4.50
2022-11-27T14:58:27.193Z,4.83
2022-11-27T15:01:02.737Z,4.73
2022-11-27T15:03:30.379Z,4.50
2022-11-27T15:06:02.234Z,4.37
2022-11-27T15:08:30.896Z,4.70
2022-11-27T15:10:59.334Z,5.07
2022-11-27T15:13:30.904Z,5.60
2022-11-27T15:16:19.044Z,9.43
2022-11-27T15:18:51.103Z,5.43
2022-11-27T15:21:22.481Z,5.93
2022-11-27T15:23:50.452Z,5.57
2022-11-27T15:26:40.486Z,5.33
2022-11-27T15:29:30.190Z,5.47
2022-11-27T15:31:59.253Z,5.23
2022-11-27T15:34:30.940Z,5.73
2022-11-27T15:37:03.935Z,5.53
2022-11-27T15:39:39.380Z,5.80
2022-11-27T15:42:10.038Z,4.90
2022-11-27T15:44:38.733Z,5.50
2022-11-27T15:47:07.216Z,5.23
2022-11-27T15:49:34.703Z,6.00
2022-11-27T15:52:02.337Z,6.47
2022-11-27T15:54:29.778Z,7.77
2022-11-27T15:56:58.466Z,6.40
2022-11-27T15:59:27.383Z,7.60
2022-11-27T16:01:56.137Z,6.50
2022-11-27T16:04:23.667Z,5.90
2022-11-27T16:06:51.445Z,10.53
2022-11-27T16:09:19.105Z,9.57
2022-11-27T16:11:46.663Z,5.80
2022-11-27T16:14:14.274Z,9.30
2022-11-27T16:16:41.914Z,8.37
2022-11-27T16:19:12.260Z,8.57
2022-11-27T16:21:40.138Z,6.77
2022-11-27T16:24:08.674Z,7.53
2022-11-27T16:26:38.130Z,7.30
2022-11-27T16:29:06.475Z,7.10
2022-11-27T16:31:34.042Z,7.03
2022-11-27T16:34:04.595Z,6.13
2022-11-27T16:36:33.135Z,8.40
2022-11-27T16:39:01.194Z,5.53
2022-11-27T16:41:30.850Z,6.07
2022-11-27T16:43:58.624Z,5.97
2022-11-27T16:46:29.170Z,7.07
2022-11-27T16:48:58.935Z,7.00
2022-11-27T16:51:29.518Z,6.57
2022-11-27T16:53:59.031Z,7.50
2022-11-27T16:56:31.720Z,7.73
2022-11-27T16:59:03.131Z,8.50
2022-11-27T17:01:36.225Z,7.40
2022-11-27T17:04:04.878Z,7.73
2022-11-27T17:06:33.509Z,6.93
2022-11-27T17:09:01.856Z,7.23
2022-11-27T17:11:33.105Z,6.67
2022-11-27T17:14:03.012Z,6.60
2022-11-27T17:16:30.812Z,6.47
2022-11-27T17:18:59.298Z,6.73
2022-11-27T17:21:29.297Z,6.97
2022-11-27T17:23:57.712Z,6.80
2022-11-27T17:26:26.944Z,6.77
2022-11-27T17:28:59.504Z,7.53
2022-11-27T17:31:30.849Z,9.10
2022-11-27T17:33:59.894Z,6.57
2022-11-27T17:36:33.734Z,6.70
2022-11-27T17:39:05.422Z,23.17
2022-11-27T17:41:33.090Z,12.57
2022-11-27T17:44:00.728Z,9.13
2022-11-27T17:46:29.106Z,8.37
2022-11-27T17:49:00.429Z,7.37
2022-11-27T17:51:29.019Z,7.20
2022-11-27T17:54:00.810Z,8.37
2022-11-27T17:56:31.461Z,7.40
2022-11-27T17:59:00.021Z,7.40
2022-11-27T18:01:29.411Z,6.70
2022-11-27T18:04:00.374Z,7.43
2022-11-27T18:06:30.524Z,7.47
2022-11-27T18:08:58.928Z,7.20
2022-11-27T18:11:28.329Z,9.07
2022-11-27T18:13:58.857Z,13.00
2022-11-27T18:16:29.264Z,8.17
2022-11-27T18:18:58.519Z,8.33
2022-11-27T18:21:29.164Z,6.50
2022-11-27T18:29:32.231Z,6.70
2022-11-27T18:31:59.718Z,8.90
2022-11-27T18:34:27.236Z,6.90
2022-11-27T18:36:57.431Z,7.37
2022-11-27T18:39:25.144Z,6.67
2022-11-27T18:41:52.944Z,6.90
2022-11-27T18:44:20.643Z,7.23
2022-11-27T18:46:48.417Z,6.97
2022-11-27T18:49:16.008Z,7.60
2022-11-27T18:51:43.493Z,7.40
2022-11-27T18:54:10.967Z,8.97
2022-11-27T18:56:38.480Z,8.27
2022-11-27T18:59:07.014Z,6.70
2022-11-27T19:01:41.314Z,8.03
2022-11-27T19:04:10.160Z,8.20
2022-11-27T19:06:38.568Z,7.23
2022-11-27T19:09:06.872Z,7.50
2022-11-27T19:11:35.071Z,7.07
2022-11-27T19:14:03.479Z,6.23
2022-11-27T19:16:35.724Z,7.77
2022-11-27T19:19:04.947Z,8.03
2022-11-27T19:21:34.282Z,7.97
2022-11-27T19:24:03.517Z,7.27
2022-11-27T19:26:32.391Z,8.57
2022-11-27T19:29:02.648Z,7.97
2022-11-27T19:31:33.585Z,7.97
2022-11-27T19:34:03.120Z,7.40
2022-11-27T19:36:31.793Z,7.50
2022-11-27T19:39:04.099Z,7.00
2022-11-27T19:41:31.637Z,7.37
2022-11-27T19:44:03.655Z,7.43
2022-11-27T19:46:32.223Z,7.37
2022-11-27T19:49:01.134Z,6.80
2022-11-27T19:51:31.824Z,6.73
2022-11-27T19:54:02.623Z,6.50
2022-11-27T19:56:35.764Z,6.43
2022-11-27T19:59:03.684Z,8.33
2022-11-27T20:01:31.266Z,13.33
2022-11-27T20:03:59.966Z,12.80
2022-11-27T20:06:28.380Z,8.70
2022-11-27T20:09:00.880Z,8.00
2022-11-27T20:11:34.635Z,7.90
2022-11-27T20:14:04.943Z,7.20
2022-11-27T20:16:34.121Z,9.27
2022-11-27T20:19:02.507Z,9.30
2022-11-27T20:21:31.026Z,7.43
2022-11-27T20:23:58.801Z,7.57
2022-11-27T20:26:28.298Z,6.87
2022-11-27T20:28:55.893Z,12.50
2022-11-27T20:31:25.469Z,6.90
2022-11-27T20:33:56.149Z,15.00
2022-11-27T20:36:25.107Z,11.90
2022-11-27T20:38:53.914Z,14.33
2022-11-27T20:41:22.394Z,11.10
2022-11-27T20:43:55.373Z,9.40
2022-11-27T20:46:23.813Z,9.97
2022-11-27T20:48:52.358Z,18.07
2022-11-27T20:51:21.491Z,14.97
2022-11-27T20:53:49.780Z,14.07
2022-11-27T20:56:20.401Z,14.10
2022-11-27T20:58:48.753Z,11.60
2022-11-27T21:01:21.164Z,12.33
2022-11-27T21:03:50.093Z,9.97
2022-11-27T21:06:20.176Z,8.73
2022-11-27T21:08:49.248Z,9.00
2022-11-27T21:11:18.617Z,8.47
2022-11-27T21:13:46.100Z,8.60
2022-11-27T21:16:14.904Z,7.90
2022-11-27T21:18:43.132Z,8.00
2022-11-27T21:21:12.017Z,7.87
2022-11-27T21:23:40.057Z,7.63
2022-11-27T21:26:08.322Z,8.07
2022-11-27T21:28:35.909Z,9.67
2022-11-27T21:31:17.860Z,7.70
2022-11-27T21:33:49.286Z,7.10
2022-11-27T21:36:17.600Z,7.00
2022-11-27T21:38:45.778Z,7.47
2022-11-27T21:41:14.084Z,7.37
2022-11-27T21:43:42.409Z,7.63
2022-11-27T21:46:14.161Z,7.30
2022-11-27T21:48:42.106Z,9.13
2022-11-27T21:51:15.424Z,8.13
2022-11-27T21:53:43.867Z,7.47
2022-11-27T21:56:17.299Z,7.10
2022-11-27T21:58:46.914Z,7.77
2022-11-27T22:01:18.400Z,7.13
2022-11-27T22:03:51.527Z,6.90
2022-11-27T22:06:19.649Z,6.73
2022-11-27T22:08:48.189Z,6.87
2022-11-27T22:11:17.330Z,6.83
2022-11-27T22:13:45.245Z,7.10
2022-11-27T22:16:13.996Z,7.20
2022-11-27T22:18:41.778Z,7.40
2022-11-27T22:21:10.565Z,7.17
2022-11-27T22:23:38.990Z,7.10
2022-11-27T22:26:07.441Z,7.13
2022-11-27T22:28:36.178Z,7.13
2022-11-27T22:31:12.829Z,7.10
2022-11-27T22:33:41.447Z,6.53
2022-11-27T22:36:16.908Z,6.90
2022-11-27T22:38:45.683Z,6.50
2022-11-27T22:41:14.746Z,7.80
2022-11-27T22:43:42.604Z,7.07
2022-11-27T22:46:12.477Z,7.27
2022-11-27T22:48:40.319Z,7.20
2022-11-27T22:51:09.318Z,6.93
2022-11-27T22:53:37.223Z,6.73
2022-11-27T22:56:06.246Z,7.80
2022-11-27T22:58:38.379Z,6.83
2022-11-27T23:01:10.256Z,7.20
2022-11-27T23:03:38.818Z,8.53
2022-11-27T23:06:11.855Z,7.47
2022-11-27T23:08:40.533Z,8.13
2022-11-27T23:11:08.756Z,7.77
2022-11-27T23:13:36.294Z,7.97
2022-11-27T23:16:04.809Z,7.93
2022-11-27T23:18:32.504Z,7.90
2022-11-27T23:21:00.013Z,8.00
2022-11-27T23:23:27.447Z,8.73
2022-11-27T23:25:54.940Z,7.70
2022-11-27T23:28:22.368Z,7.83
2022-11-27T23:31:03.136Z,7.80
2022-11-27T23:33:37.870Z,6.97
2022-11-27T23:36:05.518Z,7.37
2022-11-27T23:38:33.288Z,7.10
2022-11-27T23:41:11.464Z,6.93
2022-11-27T23:43:39.077Z,7.30
2022-11-27T23:46:07.816Z,7.30
2022-11-27T23:48:35.453Z,7.00
2022-11-27T23:51:10.156Z,6.47
2022-11-27T23:53:38.208Z,7.87
2022-11-27T23:56:08.527Z,7.40
2022-11-27T23:58:35.969Z,7.37
